Time;durP1;ratioP1;P1;durP2;ratioP2;P2;SDS_P1;SDS_P2;PMS_P1;PMS_P2;Temp;Humidity;BMP_temperature;BMP_pressure;BME280_temperature;BME280_humidity;BME280_pressure;Samples;Min_cycle;Max_cycle;Signal;HPM_P1;HPM_P2
2021/03/09 00:01:03;;;;;;;11.75;4.60;;;3.10;87.60;;;;;;5121791;23;20206;-83
2021/03/09 00:03:05;;;;;;;6.72;5.00;;;3.00;87.80;;;;;;5130946;23;20253;-83
2021/03/09 00:05:09;;;;;;;8.18;4.40;;;3.00;87.70;;;;;;5131131;23;20810;-83
2021/03/09 00:07:11;;;;;;;7.32;5.32;;;3.00;87.80;;;;;;5125043;23;20210;-83
2021/03/09 00:09:13;;;;;;;5.20;4.43;;;3.00;87.70;;;;;;5123734;23;20255;-83
2021/03/09 00:11:14;;;;;;;5.65;4.50;;;3.00;87.60;;;;;;5123750;23;20230;-82
2021/03/09 00:13:16;;;;;;;7.72;4.68;;;3.10;87.60;;;;;;5124941;23;20217;-82
2021/03/09 00:15:18;;;;;;;8.02;5.10;;;3.00;87.50;;;;;;5123270;23;20221;-83
2021/03/09 00:17:22;;;;;;;5.93;4.50;;;3.00;87.30;;;;;;5135065;23;20254;-82
2021/03/09 00:19:24;;;;;;;9.95;4.88;;;3.10;87.30;;;;;;5133904;23;20203;-83
2021/03/09 00:21:26;;;;;;;6.15;4.20;;;3.10;87.00;;;;;;5123967;23;20850;-83
2021/03/09 00:23:28;;;;;;;5.43;4.82;;;3.10;87.00;;;;;;5132316;23;20202;-83
2021/03/09 00:25:30;;;;;;;5.97;4.40;;;3.10;87.20;;;;;;5132581;23;20214;-83
2021/03/09 00:27:32;;;;;;;7.07;4.82;;;3.10;86.90;;;;;;5124776;23;20210;-81
2021/03/09 00:29:34;;;;;;;6.72;4.63;;;3.10;87.00;;;;;;5123720;23;20218;-83
2021/03/09 00:31:36;;;;;;;6.35;4.90;;;3.10;86.80;;;;;;5124164;23;20289;-81
2021/03/09 00:33:39;;;;;;;7.50;4.70;;;3.20;86.20;;;;;;5132817;23;20210;-81
2021/03/09 00:35:41;;;;;;;6.00;4.72;;;3.10;86.10;;;;;;5123198;23;20249;-81
2021/03/09 00:37:43;;;;;;;6.95;4.72;;;3.00;85.90;;;;;;5121063;23;20286;-83
2021/03/09 00:39:45;;;;;;;6.18;4.65;;;3.00;86.20;;;;;;5121471;23;20278;-82
2021/03/09 00:41:47;;;;;;;5.78;4.30;;;3.00;85.80;;;;;;5130821;23;20216;-83
2021/03/09 00:43:49;;;;;;;6.65;4.72;;;3.10;85.30;;;;;;5131147;23;20793;-83
2021/03/09 00:45:51;;;;;;;5.80;4.40;;;3.20;85.40;;;;;;5122171;23;20213;-83
2021/03/09 00:47:53;;;;;;;4.88;4.38;;;3.20;85.00;;;;;;5120285;23;20230;-83
2021/03/09 00:49:56;;;;;;;9.25;4.47;;;3.10;84.40;;;;;;5120999;23;20539;-83
2021/03/09 00:51:58;;;;;;;6.82;4.25;;;3.00;84.70;;;;;;5119849;23;20212;-83
2021/03/09 00:54:00;;;;;;;5.47;4.43;;;3.00;85.00;;;;;;5119649;23;20270;-84
2021/03/09 00:56:02;;;;;;;6.93;4.65;;;2.90;84.90;;;;;;5120411;23;20210;-83
2021/03/09 00:58:04;;;;;;;6.47;3.97;;;2.90;85.10;;;;;;5128201;23;20230;-83
2021/03/09 01:00:07;;;;;;;5.70;4.18;;;3.00;84.70;;;;;;5129136;23;20207;-81
2021/03/09 01:02:09;;;;;;;7.50;5.15;;;3.00;84.60;;;;;;5128789;23;20260;-83
2021/03/09 01:04:11;;;;;;;9.35;5.32;;;2.90;85.00;;;;;;5128992;23;20668;-83
2021/03/09 01:06:14;;;;;;;7.35;4.93;;;3.00;85.30;;;;;;5128814;23;20203;-84
2021/03/09 01:08:17;;;;;;;7.13;4.75;;;3.00;84.70;;;;;;5120191;23;20217;-82
2021/03/09 01:10:20;;;;;;;7.40;4.47;;;3.10;84.70;;;;;;5127760;23;20206;-81
2021/03/09 01:12:22;;;;;;;5.57;4.10;;;3.10;84.60;;;;;;5128981;23;20231;-83
2021/03/09 01:14:25;;;;;;;6.45;4.60;;;3.20;84.80;;;;;;5120728;23;20286;-83
2021/03/09 01:16:27;;;;;;;5.35;4.30;;;3.20;84.50;;;;;;5128803;23;20233;-83
2021/03/09 01:18:29;;;;;;;5.35;4.32;;;3.20;84.50;;;;;;5119499;23;20261;-81
2021/03/09 01:20:31;;;;;;;5.97;4.28;;;3.10;84.60;;;;;;5128710;23;20205;-82
2021/03/09 01:22:34;;;;;;;4.97;4.32;;;3.00;84.80;;;;;;5120614;23;20839;-83
2021/03/09 01:24:36;;;;;;;4.80;4.10;;;3.00;84.70;;;;;;5120565;23;20213;-82
2021/03/09 01:26:38;;;;;;;8.35;4.72;;;3.10;85.10;;;;;;5119198;23;20218;-83
2021/03/09 01:28:40;;;;;;;4.97;4.47;;;3.00;84.60;;;;;;5119072;23;20209;-83
2021/03/09 01:30:42;;;;;;;4.95;4.15;;;3.10;84.60;;;;;;5118762;23;20229;-82
2021/03/09 01:32:44;;;;;;;7.05;4.50;;;3.10;84.70;;;;;;5127496;23;20944;-83
2021/03/09 01:34:46;;;;;;;5.78;3.97;;;3.10;84.80;;;;;;5126009;23;20203;-84
2021/03/09 01:36:48;;;;;;;7.68;4.78;;;3.10;84.90;;;;;;5117497;23;20215;-84
2021/03/09 01:38:51;;;;;;;7.40;4.30;;;3.10;84.70;;;;;;5125924;23;20199;-84
2021/03/09 01:40:53;;;;;;;5.90;4.20;;;3.00;84.90;;;;;;5125504;23;20219;-83
2021/03/09 01:42:55;;;;;;;7.70;4.43;;;3.00;84.90;;;;;;5125391;23;20282;-82
2021/03/09 01:44:57;;;;;;;5.65;3.88;;;3.00;85.00;;;;;;5117288;23;20602;-83
2021/03/09 01:47:01;;;;;;;7.68;4.25;;;3.00;85.10;;;;;;5126532;23;20230;-82
2021/03/09 01:49:04;;;;;;;5.03;3.80;;;2.90;84.90;;;;;;5126341;23;20268;-83
2021/03/09 01:51:06;;;;;;;5.40;4.35;;;2.90;85.00;;;;;;5118544;23;20207;-83
2021/03/09 01:53:08;;;;;;;6.00;4.30;;;2.80;85.40;;;;;;5118577;23;20264;-83
2021/03/09 01:55:12;;;;;;;8.13;4.60;;;2.90;85.10;;;;;;5126714;23;20281;-82
2021/03/09 01:57:14;;;;;;;6.03;4.18;;;2.80;85.30;;;;;;5127315;23;20286;-83
2021/03/09 01:59:18;;;;;;;6.43;4.22;;;2.80;85.60;;;;;;5126547;23;20202;-83
2021/03/09 02:01:20;;;;;;;4.93;4.15;;;2.80;85.50;;;;;;5117537;23;20290;-82
2021/03/09 02:03:22;;;;;;;9.10;4.20;;;2.70;85.60;;;;;;5125789;23;20245;-83
2021/03/09 02:05:25;;;;;;;6.03;3.97;;;2.70;85.80;;;;;;5117740;23;20542;-84
2021/03/09 02:07:27;;;;;;;6.07;4.30;;;2.70;85.90;;;;;;5117823;23;20218;-82
2021/03/09 02:09:30;;;;;;;5.85;4.35;;;2.70;85.90;;;;;;5125836;23;20237;-83
2021/03/09 02:11:38;;;;;;;5.18;4.55;;;2.90;85.80;;;;;;5118482;23;20245;-83
2021/03/09 02:13:47;;;;;;;6.63;4.35;;;2.90;85.30;;;;;;5120622;23;20210;-81
2021/03/09 02:15:57;;;;;;;5.50;4.50;;;3.00;84.80;;;;;;5120171;23;20218;-84
2021/03/09 02:18:09;;;;;;;6.18;4.20;;;3.00;84.60;;;;;;5128032;23;20511;-84
2021/03/09 02:20:30;;;;;;;6.10;4.07;;;3.00;84.40;;;;;;5126206;23;20538;-84
2021/03/09 02:22:51;;;;;;;4.50;4.05;;;3.00;84.50;;;;;;5128568;23;20216;-84
2021/03/09 02:25:10;;;;;;;5.93;4.50;;;3.00;84.60;;;;;;5120227;23;20202;-85
2021/03/09 02:27:28;;;;;;;3.83;3.50;;;2.90;84.50;;;;;;5127717;23;20210;-84
2021/03/09 02:29:59;;;;;;;4.03;3.65;;;2.80;84.80;;;;;;5119680;23;20214;-84
2021/03/09 02:32:02;;;;;;;5.80;3.90;;;2.80;84.50;;;;;;5119519;23;20206;-84
2021/03/09 02:34:10;;;;;;;6.65;4.10;;;2.80;84.50;;;;;;5127758;23;20225;-84
2021/03/09 02:36:17;;;;;;;4.75;3.97;;;2.80;84.40;;;;;;5127354;23;20210;-83
2021/03/09 02:38:23;;;;;;;5.13;4.25;;;2.80;84.60;;;;;;5118230;23;20735;-84
2021/03/09 02:40:27;;;;;;;5.93;4.05;;;2.80;84.70;;;;;;5125990;23;20523;-85
2021/03/09 02:42:30;;;;;;;5.53;3.70;;;2.90;84.60;;;;;;5126784;23;20226;-85
2021/03/09 02:44:34;;;;;;;4.00;3.60;;;2.90;84.40;;;;;;5125601;23;20203;-84
2021/03/09 02:46:40;;;;;;;4.55;3.72;;;2.80;84.60;;;;;;5118459;23;20708;-84
2021/03/09 02:49:00;;;;;;;5.38;3.80;;;2.80;84.20;;;;;;5127177;23;20203;-85
2021/03/09 02:51:04;;;;;;;4.68;3.97;;;2.80;84.30;;;;;;5126971;23;20282;-84
2021/03/09 02:53:10;;;;;;;6.72;3.83;;;2.90;84.10;;;;;;5127390;23;20205;-84
2021/03/09 02:55:14;;;;;;;4.68;3.80;;;2.90;84.10;;;;;;5119333;23;20566;-84
2021/03/09 02:57:17;;;;;;;4.60;3.70;;;2.80;84.00;;;;;;5128343;23;20266;-85
2021/03/09 02:59:21;;;;;;;10.75;6.30;;;2.90;84.30;;;;;;5120193;23;20202;-84
2021/03/09 03:01:26;;;;;;;11.90;6.65;;;2.90;84.40;;;;;;5120262;23;20210;-85
2021/03/09 03:03:31;;;;;;;5.35;4.38;;;2.90;84.30;;;;;;5128225;23;20199;-84
2021/03/09 03:05:34;;;;;;;5.35;4.10;;;2.90;84.40;;;;;;5128959;23;20885;-85
2021/03/09 03:07:38;;;;;;;4.00;3.30;;;2.90;84.30;;;;;;5129668;23;20677;-82
2021/03/09 03:09:42;;;;;;;6.28;4.03;;;2.80;84.60;;;;;;5121368;23;20207;-84
2021/03/09 03:11:46;;;;;;;7.32;4.13;;;2.80;84.80;;;;;;5121931;23;20210;-81
2021/03/09 03:13:50;;;;;;;5.75;3.90;;;2.80;84.90;;;;;;5129536;23;20820;-85
2021/03/09 03:15:55;;;;;;;6.25;3.67;;;2.80;84.90;;;;;;5129513;23;20534;-82
2021/03/09 03:17:59;;;;;;;5.43;4.13;;;2.80;85.10;;;;;;5130052;23;20209;-83
2021/03/09 03:20:09;;;;;;;5.10;4.15;;;2.90;85.00;;;;;;5129849;23;20226;-84
2021/03/09 03:22:13;;;;;;;4.60;3.75;;;2.80;85.00;;;;;;5129528;23;20194;-80
2021/03/09 03:24:16;;;;;;;5.47;3.72;;;2.80;85.30;;;;;;5128730;23;20799;-82
2021/03/09 03:26:18;;;;;;;6.18;3.95;;;2.80;85.10;;;;;;5128656;23;20290;-83
2021/03/09 03:28:22;;;;;;;6.45;3.70;;;2.80;85.40;;;;;;5120991;23;20206;-83
2021/03/09 03:30:25;;;;;;;5.45;3.70;;;2.80;85.50;;;;;;5116910;23;20293;-82
2021/03/09 03:32:27;;;;;;;6.38;3.70;;;2.80;85.40;;;;;;5128102;23;20198;-83
2021/03/09 03:34:29;;;;;;;4.03;3.63;;;2.80;85.20;;;;;;5121329;23;20213;-82
2021/03/09 03:36:33;;;;;;;5.25;3.80;;;2.80;85.50;;;;;;5129193;23;20198;-82
2021/03/09 03:38:38;;;;;;;5.47;3.85;;;2.80;85.70;;;;;;5120965;23;20217;-83
2021/03/09 03:40:40;;;;;;;7.05;4.07;;;2.70;85.60;;;;;;5119975;23;20240;-83
2021/03/09 03:42:43;;;;;;;4.40;3.70;;;2.80;85.60;;;;;;5120142;23;20579;-83
2021/03/09 03:44:45;;;;;;;5.47;3.80;;;2.80;85.60;;;;;;5118788;23;20658;-83
2021/03/09 03:46:47;;;;;;;4.80;4.05;;;2.80;85.60;;;;;;5126387;23;20274;-82
2021/03/09 03:48:50;;;;;;;3.92;3.53;;;2.90;85.50;;;;;;5118512;23;20503;-82
2021/03/09 03:50:54;;;;;;;4.85;3.97;;;2.80;85.50;;;;;;5118982;23;20211;-83
2021/03/09 03:53:10;;;;;;;5.82;3.55;;;2.80;85.60;;;;;;5119733;23;20286;-83
2021/03/09 03:55:21;;;;;;;5.15;4.18;;;2.80;85.60;;;;;;5127687;23;20281;-82
2021/03/09 03:57:31;;;;;;;6.47;4.40;;;2.80;85.50;;;;;;5128462;23;20198;-82
2021/03/09 03:59:38;;;;;;;8.30;3.72;;;2.80;85.80;;;;;;5128090;23;20209;-81
2021/03/09 04:01:43;;;;;;;6.90;4.38;;;2.70;86.00;;;;;;5128732;23;20198;-83
2021/03/09 04:03:49;;;;;;;6.35;4.05;;;2.70;86.20;;;;;;5121616;23;20214;-82
2021/03/09 04:05:53;;;;;;;4.88;3.95;;;2.60;86.10;;;;;;5118624;23;20206;-82
2021/03/09 04:07:57;;;;;;;4.88;4.03;;;2.70;86.30;;;;;;5135033;23;20235;-83
2021/03/09 04:10:00;;;;;;;5.28;4.28;;;2.80;86.10;;;;;;5143125;23;20217;-81
2021/03/09 04:12:05;;;;;;;4.30;3.80;;;2.80;85.90;;;;;;5133716;23;20230;-82
2021/03/09 04:14:09;;;;;;;4.97;3.95;;;2.70;86.10;;;;;;5140663;23;20210;-81
2021/03/09 04:16:13;;;;;;;5.07;4.00;;;2.70;86.10;;;;;;5140291;23;20210;-84
2021/03/09 04:18:17;;;;;;;5.78;4.75;;;2.90;86.00;;;;;;5140840;23;20256;-83
2021/03/09 04:20:21;;;;;;;6.93;4.32;;;2.90;85.90;;;;;;5140329;23;20226;-83
2021/03/09 04:22:25;;;;;;;6.53;4.40;;;3.00;85.70;;;;;;5140627;23;20202;-82
2021/03/09 04:24:32;;;;;;;5.50;4.18;;;2.90;85.60;;;;;;5141629;23;20206;-84
2021/03/09 04:26:34;;;;;;;5.90;4.32;;;2.90;85.90;;;;;;5141518;23;20207;-82
2021/03/09 04:28:37;;;;;;;6.05;3.78;;;2.90;85.80;;;;;;5139582;23;20210;-84
2021/03/09 04:30:40;;;;;;;7.65;3.70;;;2.90;85.80;;;;;;5128666;23;20541;-83
2021/03/09 04:32:44;;;;;;;5.38;3.60;;;2.90;85.90;;;;;;5138288;23;20207;-83
2021/03/09 04:34:47;;;;;;;4.65;3.70;;;2.90;85.70;;;;;;5137662;23;20213;-83
2021/03/09 04:37:13;;;;;;;6.05;3.70;;;2.80;85.90;;;;;;5137938;23;20213;-83
2021/03/09 04:39:15;;;;;;;5.72;4.28;;;2.90;85.90;;;;;;5138387;23;20226;-83
2021/03/09 04:41:18;;;;;;;5.20;3.83;;;2.90;86.00;;;;;;5137823;23;20213;-82
2021/03/09 04:43:20;;;;;;;4.50;4.07;;;2.90;86.10;;;;;;5137522;23;20202;-83
2021/03/09 04:45:23;;;;;;;6.10;3.80;;;2.90;86.00;;;;;;5137700;23;20207;-83
2021/03/09 04:47:25;;;;;;;5.05;4.00;;;2.90;86.30;;;;;;5136487;23;20233;-83
2021/03/09 04:49:27;;;;;;;7.35;4.35;;;2.80;86.90;;;;;;5135828;23;20210;-83
2021/03/09 04:51:29;;;;;;;8.52;4.63;;;2.80;87.20;;;;;;5135513;23;20230;-82
2021/03/09 04:53:32;;;;;;;5.90;4.47;;;2.70;88.00;;;;;;5132316;23;20206;-83
2021/03/09 04:55:34;;;;;;;7.85;4.28;;;2.70;88.80;;;;;;5131599;23;20199;-83
2021/03/09 04:57:39;;;;;;;7.05;4.90;;;2.80;88.80;;;;;;5124300;23;20230;-83
2021/03/09 04:59:41;;;;;;;9.45;5.28;;;2.80;89.10;;;;;;5131533;23;20206;-82
2021/03/09 05:01:43;;;;;;;6.72;4.10;;;2.80;89.60;;;;;;5133498;23;20285;-82
2021/03/09 05:03:46;;;;;;;6.97;4.90;;;3.00;90.50;;;;;;5135836;23;20202;-83
2021/03/09 05:05:48;;;;;;;8.55;5.85;;;2.90;90.90;;;;;;5135618;23;20218;-83
2021/03/09 05:07:50;;;;;;;6.38;4.65;;;3.00;91.80;;;;;;5135787;23;20206;-83
2021/03/09 05:09:52;;;;;;;6.85;4.65;;;3.00;92.80;;;;;;5134563;23;20206;-82
2021/03/09 05:11:55;;;;;;;4.90;4.07;;;3.00;93.50;;;;;;5135748;23;20209;-85
2021/03/09 05:13:59;;;;;;;6.13;4.13;;;2.90;94.00;;;;;;5135046;23;20202;-83
2021/03/09 05:16:01;;;;;;;7.38;5.63;;;2.90;94.70;;;;;;5123660;23;20551;-82
2021/03/09 05:18:04;;;;;;;5.57;4.22;;;2.80;95.30;;;;;;5131662;23;20250;-82
2021/03/09 05:20:09;;;;;;;6.18;4.43;;;2.60;95.90;;;;;;5133138;23;20198;-82
2021/03/09 05:22:11;;;;;;;7.97;4.70;;;2.50;96.60;;;;;;5134118;23;20229;-83
2021/03/09 05:24:13;;;;;;;6.07;4.50;;;2.50;97.10;;;;;;5124641;23;20230;-83
2021/03/09 05:26:15;;;;;;;6.70;5.10;;;2.50;97.40;;;;;;5132229;23;20206;-82
2021/03/09 05:28:17;;;;;;;14.27;4.55;;;2.70;97.70;;;;;;5132329;23;20214;-82
2021/03/09 05:30:23;;;;;;;7.03;4.85;;;2.70;97.80;;;;;;5132206;23;20230;-82
2021/03/09 05:32:25;;;;;;;5.10;4.45;;;2.70;98.20;;;;;;5133986;23;20202;-85
2021/03/09 05:34:27;;;;;;;8.50;5.43;;;2.60;98.30;;;;;;5127181;23;20214;-84
2021/03/09 05:36:31;;;;;;;8.00;4.40;;;2.40;98.30;;;;;;5133340;23;20202;-83
2021/03/09 05:38:33;;;;;;;6.95;4.90;;;2.40;98.30;;;;;;5133493;23;20483;-83
2021/03/09 05:40:35;;;;;;;5.75;4.30;;;2.50;98.30;;;;;;5132893;23;20222;-83
2021/03/09 05:42:37;;;;;;;6.40;4.68;;;2.30;98.30;;;;;;5133697;23;20203;-82
2021/03/09 05:44:39;;;;;;;4.85;4.30;;;2.40;98.30;;;;;;5133320;23;20233;-82
2021/03/09 05:46:42;;;;;;;6.53;4.60;;;2.40;98.30;;;;;;5132672;23;20202;-83
2021/03/09 05:48:45;;;;;;;6.55;4.72;;;2.40;98.30;;;;;;5134508;23;20207;-82
2021/03/09 05:50:48;;;;;;;7.15;4.65;;;2.40;98.30;;;;;;5126085;23;20214;-83
2021/03/09 05:52:50;;;;;;;6.45;5.07;;;2.30;98.30;;;;;;5133433;23;20202;-83
2021/03/09 05:54:52;;;;;;;6.38;4.95;;;2.40;98.30;;;;;;5133482;23;20198;-83
2021/03/09 05:56:54;;;;;;;9.65;4.78;;;2.40;98.30;;;;;;5133795;23;20507;-83
2021/03/09 05:58:57;;;;;;;5.60;4.70;;;2.30;98.30;;;;;;5134360;23;20239;-82
2021/03/09 06:00:59;;;;;;;6.70;4.45;;;2.20;98.30;;;;;;5133690;23;20198;-82
2021/03/09 06:03:03;;;;;;;9.77;4.88;;;2.30;98.30;;;;;;5134755;23;20719;-83
2021/03/09 06:05:07;;;;;;;5.53;4.32;;;2.30;98.30;;;;;;5134961;23;20203;-83
2021/03/09 06:07:09;;;;;;;6.78;4.78;;;2.30;98.30;;;;;;5137256;23;20213;-82
2021/03/09 06:09:37;;;;;;;6.13;4.18;;;2.30;98.30;;;;;;5129447;23;20206;-83
2021/03/09 06:11:39;;;;;;;6.25;5.00;;;2.40;98.30;;;;;;5138607;23;20232;-82
2021/03/09 06:13:44;;;;;;;6.38;5.03;;;2.40;98.30;;;;;;5136435;23;20603;-83
2021/03/09 06:15:53;;;;;;;5.35;4.60;;;2.30;98.30;;;;;;5136378;23;20215;-83
2021/03/09 06:17:56;;;;;;;5.78;4.55;;;2.10;98.30;;;;;;5137348;23;20654;-84
2021/03/09 06:19:59;;;;;;;8.65;4.95;;;2.00;98.30;;;;;;5137169;23;20211;-82
2021/03/09 06:22:01;;;;;;;5.35;4.65;;;2.10;98.30;;;;;;5133649;23;20257;-83
2021/03/09 06:24:18;;;;;;;6.65;4.50;;;2.00;98.30;;;;;;5130741;23;20213;-84
2021/03/09 06:26:35;;;;;;;5.82;4.70;;;2.00;98.30;;;;;;5130168;23;20547;-83
2021/03/09 06:28:37;;;;;;;6.22;5.18;;;2.10;98.30;;;;;;5130875;23;20289;-82
2021/03/09 06:30:41;;;;;;;5.00;4.50;;;1.90;98.30;;;;;;5130539;23;20214;-83
2021/03/09 06:32:52;;;;;;;7.60;4.60;;;1.90;98.30;;;;;;5129462;23;20253;-82
2021/03/09 06:34:59;;;;;;;8.15;5.18;;;1.80;98.30;;;;;;5130618;23;20198;-83
2021/03/09 06:37:10;;;;;;;9.30;5.40;;;1.90;98.30;;;;;;5131330;23;20202;-83
2021/03/09 06:39:13;;;;;;;6.55;4.43;;;1.70;98.30;;;;;;5129679;23;20210;-83
2021/03/09 06:41:18;;;;;;;5.88;4.80;;;1.80;98.30;;;;;;5125955;23;20199;-82
2021/03/09 06:43:20;;;;;;;8.02;4.80;;;1.90;98.30;;;;;;5125860;23;20233;-81
2021/03/09 06:45:22;;;;;;;7.03;4.70;;;1.80;98.30;;;;;;5127198;23;20658;-82
2021/03/09 06:47:49;;;;;;;5.88;4.47;;;1.90;98.30;;;;;;5129076;23;20254;-81
2021/03/09 06:49:53;;;;;;;9.90;5.20;;;2.10;98.30;;;;;;5129850;23;20213;-82
2021/03/09 06:52:13;;;;;;;6.18;5.15;;;2.10;98.30;;;;;;5132156;23;20198;-82
2021/03/09 06:54:15;;;;;;;8.10;4.72;;;2.30;98.30;;;;;;5135871;23;20277;-81
2021/03/09 06:56:25;;;;;;;6.95;5.93;;;2.30;98.30;;;;;;5134942;23;20673;-82
2021/03/09 06:58:29;;;;;;;6.18;5.32;;;2.20;98.30;;;;;;5133972;23;20294;-82
2021/03/09 07:00:34;;;;;;;17.10;10.13;;;2.30;98.30;;;;;;5134489;23;20198;-82
2021/03/09 07:02:37;;;;;;;8.88;5.30;;;2.40;98.30;;;;;;5135374;23;20214;-83
2021/03/09 07:04:41;;;;;;;7.90;5.28;;;2.30;98.30;;;;;;5135316;23;20229;-83
2021/03/09 07:06:45;;;;;;;8.13;4.97;;;2.20;98.30;;;;;;5133152;23;20203;-84
2021/03/09 07:08:48;;;;;;;6.50;5.18;;;2.10;98.30;;;;;;5133203;23;20666;-83
2021/03/09 07:10:50;;;;;;;5.72;4.57;;;1.90;98.30;;;;;;5137253;23;20207;-84
2021/03/09 07:12:53;;;;;;;6.55;5.00;;;1.80;98.30;;;;;;5142725;23;20199;-83
2021/03/09 07:14:58;;;;;;;6.35;5.03;;;1.90;98.30;;;;;;5141952;23;20198;-83
2021/03/09 07:17:02;;;;;;;8.02;5.32;;;1.80;98.30;;;;;;5140927;23;20195;-82
2021/03/09 07:19:06;;;;;;;11.30;6.60;;;1.80;98.30;;;;;;5140825;23;20203;-83
2021/03/09 07:21:08;;;;;;;7.90;5.13;;;2.00;98.30;;;;;;5134499;23;20258;-83
2021/03/09 07:23:12;;;;;;;6.18;4.78;;;2.00;98.30;;;;;;5137838;23;20555;-82
2021/03/09 07:25:16;;;;;;;5.70;4.72;;;2.00;98.30;;;;;;5128566;23;20211;-82
2021/03/09 07:27:25;;;;;;;7.65;5.05;;;2.00;98.30;;;;;;5129342;23;20206;-84
2021/03/09 07:29:31;;;;;;;6.10;5.20;;;2.00;98.30;;;;;;5122432;23;20658;-83
2021/03/09 07:31:35;;;;;;;9.23;5.43;;;1.90;98.30;;;;;;5122265;23;20269;-83
2021/03/09 07:33:39;;;;;;;6.75;4.82;;;1.70;98.30;;;;;;5131241;23;20205;-84
2021/03/09 07:35:41;;;;;;;7.13;5.55;;;1.70;98.30;;;;;;5124169;23;20638;-82
2021/03/09 07:37:43;;;;;;;7.60;5.72;;;1.80;98.30;;;;;;5133782;23;20233;-83
2021/03/09 07:39:45;;;;;;;7.10;5.53;;;2.00;98.30;;;;;;5125264;23;20544;-82
2021/03/09 07:41:50;;;;;;;6.15;5.20;;;1.90;98.30;;;;;;5119880;23;20328;-83
2021/03/09 07:43:53;;;;;;;6.00;5.20;;;1.90;98.30;;;;;;5118939;23;20757;-84
2021/03/09 07:45:55;;;;;;;6.75;5.32;;;1.80;98.30;;;;;;5120274;23;20203;-82
2021/03/09 07:47:59;;;;;;;11.15;5.50;;;1.80;98.30;;;;;;5128656;23;20202;-82
2021/03/09 07:50:00;;;;;;;7.15;5.78;;;1.80;98.30;;;;;;5129782;23;20545;-84
2021/03/09 07:52:16;;;;;;;6.75;5.18;;;2.10;98.30;;;;;;5119482;23;20290;-84
2021/03/09 07:54:17;;;;;;;9.68;5.70;;;2.10;98.30;;;;;;5126281;23;20210;-83
2021/03/09 07:56:18;;;;;;;8.35;5.55;;;2.20;98.30;;;;;;5126379;23;20297;-84
2021/03/09 07:58:22;;;;;;;7.30;5.25;;;2.00;98.30;;;;;;5126130;23;20203;-84
2021/03/09 08:00:24;;;;;;;8.20;5.97;;;1.90;98.30;;;;;;5117550;23;20261;-84
2021/03/09 08:02:42;;;;;;;7.68;6.15;;;1.90;98.30;;;;;;5127365;23;20202;-83
2021/03/09 08:04:56;;;;;;;8.05;5.50;;;1.90;98.30;;;;;;5127079;23;20307;-85
2021/03/09 08:06:58;;;;;;;7.57;6.03;;;1.90;98.30;;;;;;5126379;23;20202;-84
2021/03/09 08:08:59;;;;;;;7.03;5.78;;;2.10;98.30;;;;;;5125466;23;20203;-84
2021/03/09 08:11:00;;;;;;;9.23;5.60;;;2.00;98.30;;;;;;5125587;23;20213;-84
2021/03/09 08:13:25;;;;;;;8.30;5.80;;;1.70;98.30;;;;;;5117334;23;20203;-84
2021/03/09 08:15:27;;;;;;;7.68;5.55;;;1.70;98.30;;;;;;5125347;23;20217;-84
2021/03/09 08:17:29;;;;;;;7.10;6.00;;;1.80;98.30;;;;;;5117371;23;20588;-84
2021/03/09 08:19:40;;;;;;;7.30;6.25;;;1.90;98.30;;;;;;5124330;23;20241;-84
2021/03/09 08:21:50;;;;;;;10.00;6.28;;;1.90;98.30;;;;;;5116989;23;20257;-84
2021/03/09 08:23:56;;;;;;;9.38;5.75;;;1.80;98.30;;;;;;5118630;23;20206;-82
2021/03/09 08:25:59;;;;;;;10.10;5.65;;;1.90;98.30;;;;;;5121271;23;20238;-84
2021/03/09 08:28:31;;;;;;;7.53;6.22;;;1.70;98.30;;;;;;5117083;23;20206;-84
2021/03/09 08:30:34;;;;;;;8.00;6.03;;;1.70;98.30;;;;;;5125407;23;20547;-84
2021/03/09 08:32:36;;;;;;;8.70;6.32;;;1.60;98.30;;;;;;5124989;23;20198;-84
2021/03/09 08:34:39;;;;;;;12.88;6.55;;;1.70;98.30;;;;;;5116956;23;20249;-84
2021/03/09 08:36:42;;;;;;;9.00;5.53;;;1.70;98.30;;;;;;5125180;23;20202;-84
2021/03/09 08:39:05;;;;;;;8.98;6.03;;;1.90;98.30;;;;;;5116839;23;20207;-84
2021/03/09 08:41:16;;;;;;;10.15;6.45;;;1.80;98.30;;;;;;5125303;23;20281;-85
2021/03/09 08:43:17;;;;;;;6.75;6.05;;;1.80;98.30;;;;;;5125126;23;20281;-83
2021/03/09 08:45:38;;;;;;;7.88;6.70;;;1.70;98.30;;;;;;5125281;23;20217;-85
2021/03/09 08:47:53;;;;;;;8.77;7.07;;;1.90;98.30;;;;;;5125639;23;20205;-84
2021/03/09 08:49:56;;;;;;;9.80;7.07;;;2.00;98.30;;;;;;5124736;23;20230;-83
2021/03/09 08:51:59;;;;;;;7.80;6.50;;;1.90;98.30;;;;;;5117049;23;20231;-83
2021/03/09 08:54:01;;;;;;;10.45;6.95;;;1.90;98.30;;;;;;5118797;23;20261;-83
2021/03/09 08:56:05;;;;;;;12.35;7.85;;;1.80;98.30;;;;;;5128830;23;20209;-82
2021/03/09 08:58:07;;;;;;;10.48;7.82;;;1.80;98.30;;;;;;5128411;23;20205;-81
2021/03/09 09:00:11;;;;;;;7.28;6.45;;;1.90;98.30;;;;;;5128048;23;20278;-82
2021/03/09 09:02:16;;;;;;;7.85;6.55;;;2.00;98.30;;;;;;5128979;23;20203;-84
2021/03/09 09:04:22;;;;;;;9.05;6.85;;;2.00;98.30;;;;;;5129180;23;20720;-82
2021/03/09 09:06:27;;;;;;;10.43;6.63;;;2.10;98.30;;;;;;5129616;23;20258;-83
2021/03/09 09:08:29;;;;;;;9.00;6.88;;;2.00;98.30;;;;;;5129941;23;20689;-83
2021/03/09 09:10:32;;;;;;;14.57;9.25;;;2.20;98.30;;;;;;5128799;23;20210;-81
2021/03/09 09:12:35;;;;;;;10.25;7.75;;;2.20;98.30;;;;;;5130084;23;20238;-82
2021/03/09 09:14:37;;;;;;;8.63;6.45;;;2.20;98.30;;;;;;5129514;23;21041;-82
2021/03/09 09:16:39;;;;;;;9.65;6.13;;;2.00;98.30;;;;;;5129689;23;20217;-82
2021/03/09 09:18:43;;;;;;;9.70;7.28;;;2.00;98.30;;;;;;5129525;23;20214;-84
2021/03/09 09:20:47;;;;;;;9.88;6.72;;;2.10;98.30;;;;;;5129612;23;20229;-83
2021/03/09 09:22:51;;;;;;;11.00;6.90;;;2.10;98.30;;;;;;5129572;23;20210;-83
2021/03/09 09:24:57;;;;;;;8.70;6.63;;;2.10;98.30;;;;;;5129489;23;20203;-82
2021/03/09 09:27:03;;;;;;;10.88;7.63;;;2.00;98.30;;;;;;5129461;23;20285;-83
2021/03/09 09:29:08;;;;;;;11.95;8.25;;;2.00;98.30;;;;;;5129612;23;20206;-83
2021/03/09 09:31:12;;;;;;;7.50;6.20;;;2.10;98.30;;;;;;5134074;23;20298;-82
2021/03/09 09:33:19;;;;;;;31.30;19.48;;;2.10;98.30;;;;;;5128275;23;20262;-83
2021/03/09 09:35:26;;;;;;;16.35;11.23;;;2.10;98.30;;;;;;5131635;23;20198;-82
2021/03/09 09:37:28;;;;;;;9.50;7.50;;;2.20;98.30;;;;;;5131655;23;20199;-82
2021/03/09 09:39:34;;;;;;;10.70;7.97;;;2.10;98.30;;;;;;5127671;23;20599;-82
2021/03/09 09:41:36;;;;;;;12.77;7.60;;;2.30;98.30;;;;;;5127704;23;20250;-81
2021/03/09 09:43:38;;;;;;;10.13;7.72;;;2.40;98.30;;;;;;5127825;23;20925;-82
2021/03/09 09:45:42;;;;;;;10.73;8.23;;;2.20;98.30;;;;;;5127620;23;20713;-83
2021/03/09 09:47:45;;;;;;;9.45;7.70;;;2.40;98.30;;;;;;5127779;23;20229;-83
2021/03/09 09:49:47;;;;;;;11.02;7.07;;;2.50;98.30;;;;;;5126556;23;20198;-84
2021/03/09 09:51:50;;;;;;;10.65;8.27;;;2.40;98.30;;;;;;5126768;23;20605;-83
2021/03/09 09:53:54;;;;;;;10.93;7.60;;;2.50;98.30;;;;;;5127927;23;20514;-83
2021/03/09 09:55:56;;;;;;;10.15;7.75;;;2.40;98.30;;;;;;5127776;23;20253;-83
2021/03/09 09:57:59;;;;;;;11.60;7.90;;;2.30;98.30;;;;;;5127921;23;20213;-85
2021/03/09 10:00:12;;;;;;;13.10;8.20;;;2.30;98.30;;;;;;5128478;23;20218;-82
2021/03/09 10:02:19;;;;;;;12.05;8.15;;;2.50;98.30;;;;;;5128816;23;20233;-83
2021/03/09 10:04:33;;;;;;;10.95;7.85;;;2.40;98.30;;;;;;5127488;23;20720;-83
2021/03/09 10:06:38;;;;;;;14.52;8.75;;;2.60;98.30;;;;;;5128211;23;20680;-83
2021/03/09 10:08:41;;;;;;;11.75;8.80;;;2.40;98.30;;;;;;5127860;23;20209;-83
2021/03/09 10:10:59;;;;;;;11.45;7.93;;;2.30;98.30;;;;;;5127217;23;20241;-83
2021/03/09 10:13:21;;;;;;;11.43;8.30;;;2.30;98.30;;;;;;5127831;23;20257;-83
2021/03/09 10:15:23;;;;;;;10.73;8.43;;;2.30;98.30;;;;;;5116361;23;20252;-85
2021/03/09 10:17:26;;;;;;;9.73;8.00;;;2.40;98.30;;;;;;5124285;23;20297;-84
2021/03/09 10:19:35;;;;;;;12.65;8.50;;;2.50;98.30;;;;;;5123861;23;20209;-84
2021/03/09 10:21:39;;;;;;;11.02;8.60;;;2.60;98.30;;;;;;5116258;23;20210;-84
2021/03/09 10:23:58;;;;;;;10.05;7.88;;;2.60;98.30;;;;;;5124440;23;20202;-85
2021/03/09 10:26:03;;;;;;;11.70;8.77;;;2.60;98.30;;;;;;5116120;23;20261;-84
2021/03/09 10:28:25;;;;;;;11.77;8.32;;;2.50;98.30;;;;;;5116039;23;20280;-84
2021/03/09 10:30:36;;;;;;;13.00;9.30;;;2.70;98.30;;;;;;5124116;23;20202;-83
2021/03/09 10:32:51;;;;;;;12.18;9.50;;;2.90;98.30;;;;;;5117072;23;20210;-84
2021/03/09 10:34:55;;;;;;;12.65;9.15;;;2.80;98.30;;;;;;5126050;23;20209;-84
2021/03/09 10:37:00;;;;;;;26.30;18.08;;;2.90;98.30;;;;;;5130625;23;20207;-83
2021/03/09 10:39:14;;;;;;;14.75;10.98;;;2.90;98.30;;;;;;5117654;23;20286;-84
2021/03/09 10:41:26;;;;;;;14.55;8.80;;;2.90;98.30;;;;;;5125708;23;20863;-83
2021/03/09 10:43:46;;;;;;;10.07;7.82;;;2.80;98.30;;;;;;5125478;23;20202;-84
2021/03/09 10:45:48;;;;;;;12.15;9.40;;;2.80;98.30;;;;;;5124725;23;20595;-85
2021/03/09 10:47:51;;;;;;;13.05;9.82;;;2.80;98.30;;;;;;5115460;23;20289;-84
2021/03/09 10:49:54;;;;;;;13.65;9.40;;;3.00;98.30;;;;;;5124976;23;20209;-82
2021/03/09 10:52:00;;;;;;;14.75;9.30;;;3.00;98.30;;;;;;5126621;23;20212;-83
2021/03/09 10:54:03;;;;;;;17.60;9.85;;;2.90;98.30;;;;;;5127455;23;20202;-82
2021/03/09 10:56:06;;;;;;;12.73;8.55;;;2.80;98.30;;;;;;5127094;23;20237;-82
2021/03/09 10:58:08;;;;;;;15.10;9.73;;;2.70;98.30;;;;;;5127102;23;20198;-83